Oak Hill, WV

8:56 PM EST on December 02, 2016 (GMT -0500)
F.I.T. - Oyler Ave. | | Change Station

Elev 1988 ft 37.99 °N, 81.15 °W | Updated 28 seconds ago

Overcast
Overcast
33.1 °F
Feels Like 33 °F
N
0.0
Wind Variable Wind from SSW
Gusts 0.0 mph

Today
High -- | Low -- °F
--% Chance of Precip.
Yesterday
High -- | Low -- °F
Precip. -- in
Pressure 30.30 in
Visibility 10.0 miles
Clouds Overcast 1800 ft
Windchill 33 °F
Dew Point 27 °F
Humidity 79%
Rainfall 0.00 in
Snow Depth Not available.
7:23 AM 5:05 PM
Waxing Crescent, 11% visible
METAR KBKW 030151Z AUTO 33011KT 10SM OVC018 M01/M04 A3021 RMK AO2 SLP259 T10061039
Pressure 30.30 in
Visibility 10.0 miles
Clouds Overcast 1800 ft
Windchill 33 °F
Dew Point 27 °F
Humidity 79%
Rainfall 0.00 in
Snow Depth Not available.
7:23 AM 5:05 PM
Waxing Crescent, 11% visible
METAR KBKW 030151Z AUTO 33011KT 10SM OVC018 M01/M04 A3021 RMK AO2 SLP259 T10061039

10-Day Weather Forecast

Almanac

Astronomy

Dec. 02, 2016 Rise Set
Actual Time
Civil Twilight
Nautical Twilight
Astronomical Twilight
Moon
Length of Visible Light
Length of Day
Tomorrow will be .
, % of the Moon is Illuminated

Today's Extremes

State Highs State Lows

Community

WunderPhotos

Upload Photos

1,955,392 photos uploaded!

WunderBlog® & News

Nearby

Air Quality

  Air Quality AQ Index Pollutant
Not available.

Snow Depth

Station Depth Elevation

Earthquake Activity

City Distance Mag. Time & Date
Minimum magnitude displayed is 2.5.

Coastal Water Temperatures

Place Temperature

Stations

Nearby Weather Stations

Station Location Temp. Windchill Dew Point Humidity Wind Precip. Elev Updated Type
                   

Watches & Warnings

There are currently no watches in effect.